sensor_id;sensor_type;location;lat;lon;timestamp;pressure;altitude;pressure_sealevel;temperature;humidity
79709;BME280;69203;48.964;9.118;2024-03-06T00:00:33;98903.78;;;5.14;100.00
79709;BME280;69203;48.964;9.118;2024-03-06T00:01:34;98900.41;;;5.12;100.00
79709;BME280;69203;48.964;9.118;2024-03-06T00:02:35;98904.56;;;5.16;100.00
79709;BME280;69203;48.964;9.118;2024-03-06T00:03:36;98899.56;;;5.11;100.00
79709;BME280;69203;48.964;9.118;2024-03-06T00:04:37;98897.94;;;5.08;100.00
79709;BME280;69203;48.964;9.118;2024-03-06T00:05:37;98898.19;;;5.02;100.00
79709;BME280;69203;48.964;9.118;2024-03-06T00:06:38;98891.38;;;5.00;100.00
79709;BME280;69203;48.964;9.118;2024-03-06T00:07:40;98898.50;;;4.96;100.00
79709;BME280;69203;48.964;9.118;2024-03-06T00:08:40;98893.84;;;5.03;100.00
79709;BME280;69203;48.964;9.118;2024-03-06T00:09:41;98888.78;;;5.00;100.00
79709;BME280;69203;48.964;9.118;2024-03-06T00:10:41;98898.78;;;5.09;100.00
79709;BME280;69203;48.964;9.118;2024-03-06T00:11:41;98894.63;;;5.05;100.00
79709;BME280;69203;48.964;9.118;2024-03-06T00:12:42;98893.84;;;5.03;100.00
79709;BME280;69203;48.964;9.118;2024-03-06T00:13:43;98892.19;;;5.02;100.00
79709;BME280;69203;48.964;9.118;2024-03-06T00:14:44;98893.78;;;5.04;100.00
79709;BME280;69203;48.964;9.118;2024-03-06T00:15:45;98890.28;;;5.05;100.00
79709;BME280;69203;48.964;9.118;2024-03-06T00:16:45;98909.63;;;5.19;100.00
79709;BME280;69203;48.964;9.118;2024-03-06T00:17:46;98889.22;;;5.09;100.00
79709;BME280;69203;48.964;9.118;2024-03-06T00:18:47;98900.19;;;5.16;100.00
79709;BME280;69203;48.964;9.118;2024-03-06T00:19:47;98893.72;;;5.06;100.00
79709;BME280;69203;48.964;9.118;2024-03-06T00:20:48;98895.13;;;5.13;100.00
79709;BME280;69203;48.964;9.118;2024-03-06T00:21:48;98904.41;;;5.19;100.00
79709;BME280;69203;48.964;9.118;2024-03-06T00:22:49;98905.47;;;5.15;100.00
79709;BME280;69203;48.964;9.118;2024-03-06T00:23:49;98898.03;;;5.07;100.00
79709;BME280;69203;48.964;9.118;2024-03-06T00:24:50;98904.84;;;5.09;100.00
79709;BME280;69203;48.964;9.118;2024-03-06T00:25:52;98892.94;;;5.04;100.00
79709;BME280;69203;48.964;9.118;2024-03-06T00:26:52;98901.38;;;5.09;100.00
79709;BME280;69203;48.964;9.118;2024-03-06T00:27:53;98892.53;;;5.13;100.00
79709;BME280;69203;48.964;9.118;2024-03-06T00:28:54;98895.47;;;5.24;100.00
79709;BME280;69203;48.964;9.118;2024-03-06T00:29:54;98911.81;;;5.28;100.00
79709;BME280;69203;48.964;9.118;2024-03-06T00:30:55;98903.44;;;5.21;100.00
79709;BME280;69203;48.964;9.118;2024-03-06T00:31:55;98901.97;;;5.16;100.00
79709;BME280;69203;48.964;9.118;2024-03-06T00:32:56;98896.06;;;5.12;100.00
79709;BME280;69203;48.964;9.118;2024-03-06T00:33:56;98886.56;;;5.11;100.00
79709;BME280;69203;48.964;9.118;2024-03-06T00:34:56;98904.56;;;5.16;100.00
79709;BME280;69203;48.964;9.118;2024-03-06T00:35:57;98898.56;;;5.14;100.00
79709;BME280;69203;48.964;9.118;2024-03-06T00:36:57;98880.97;;;5.00;100.00
79709;BME280;69203;48.964;9.118;2024-03-06T00:37:58;98903.13;;;5.08;100.00
79709;BME280;69203;48.964;9.118;2024-03-06T00:39:02;98901.53;;;5.06;100.00
79709;BME280;69203;48.964;9.118;2024-03-06T00:40:05;98900.03;;;5.00;100.00
79709;BME280;69203;48.964;9.118;2024-03-06T00:41:06;98901.94;;;4.97;100.00
79709;BME280;69203;48.964;9.118;2024-03-06T00:42:06;98905.31;;;4.99;100.00
79709;BME280;69203;48.964;9.118;2024-03-06T00:43:09;98906.16;;;4.99;100.00
79709;BME280;69203;48.964;9.118;2024-03-06T00:44:09;98904.41;;;5.00;100.00
79709;BME280;69203;48.964;9.118;2024-03-06T00:45:10;98907.78;;;5.02;100.00
79709;BME280;69203;48.964;9.118;2024-03-06T00:46:10;98906.16;;;4.99;100.00
79709;BME280;69203;48.964;9.118;2024-03-06T00:47:12;98906.09;;;5.01;100.00
79709;BME280;69203;48.964;9.118;2024-03-06T00:48:12;98915.38;;;5.06;100.00
79709;BME280;69203;48.964;9.118;2024-03-06T00:49:13;98911.94;;;5.06;100.00
79709;BME280;69203;48.964;9.118;2024-03-06T00:50:13;98904.59;;;4.95;100.00
79709;BME280;69203;48.964;9.118;2024-03-06T00:51:13;98898.75;;;4.90;100.00
79709;BME280;69203;48.964;9.118;2024-03-06T00:52:14;98917.25;;;5.03;100.00
79709;BME280;69203;48.964;9.118;2024-03-06T00:53:14;98914.81;;;5.00;100.00
79709;BME280;69203;48.964;9.118;2024-03-06T00:54:15;98914.66;;;5.03;100.00
79709;BME280;69203;48.964;9.118;2024-03-06T00:55:16;98895.31;;;4.90;100.00
79709;BME280;69203;48.964;9.118;2024-03-06T00:56:16;98885.81;;;4.89;100.00
79709;BME280;69203;48.964;9.118;2024-03-06T00:57:17;98906.16;;;4.99;100.00
79709;BME280;69203;48.964;9.118;2024-03-06T00:58:17;98887.44;;;4.91;100.00
79709;BME280;69203;48.964;9.118;2024-03-06T00:59:18;98901.75;;;5.01;100.00
79709;BME280;69203;48.964;9.118;2024-03-06T01:00:19;98884.63;;;4.96;100.00
79709;BME280;69203;48.964;9.118;2024-03-06T01:01:20;98904.84;;;5.09;100.00
79709;BME280;69203;48.964;9.118;2024-03-06T01:02:20;98894.38;;;5.11;100.00
79709;BME280;69203;48.964;9.118;2024-03-06T01:03:20;98879.34;;;4.97;100.00
79709;BME280;69203;48.964;9.118;2024-03-06T01:04:22;98896.19;;;5.09;100.00
79709;BME280;69203;48.964;9.118;2024-03-06T01:05:22;98898.44;;;5.17;100.00
79709;BME280;69203;48.964;9.118;2024-03-06T01:06:23;98902.44;;;5.24;100.00
79709;BME280;69203;48.964;9.118;2024-03-06T01:07:23;98903.28;;;5.24;100.00
79709;BME280;69203;48.964;9.118;2024-03-06T01:08:23;98886.56;;;5.11;100.00
79709;BME280;69203;48.964;9.118;2024-03-06T01:09:25;98903.66;;;5.17;100.00
79709;BME280;69203;48.964;9.118;2024-03-06T01:10:26;98905.47;;;5.15;100.00
79709;BME280;69203;48.964;9.118;2024-03-06T01:11:27;98899.63;;;5.09;100.00
79709;BME280;69203;48.964;9.118;2024-03-06T01:12:29;98897.19;;;5.06;100.00
79709;BME280;69203;48.964;9.118;2024-03-06T01:13:29;98893.50;;;5.10;100.00
79709;BME280;69203;48.964;9.118;2024-03-06T01:14:29;98890.91;;;5.10;100.00
79709;BME280;69203;48.964;9.118;2024-03-06T01:15:31;98884.81;;;5.12;100.00
79709;BME280;69203;48.964;9.118;2024-03-06T01:16:32;98905.25;;;5.19;100.00
79709;BME280;69203;48.964;9.118;2024-03-06T01:17:33;98902.00;;;5.14;100.00
79709;BME280;69203;48.964;9.118;2024-03-06T01:18:33;98891.06;;;5.07;100.00
79709;BME280;69203;48.964;9.118;2024-03-06T01:19:35;98908.91;;;5.15;100.00
79709;BME280;69203;48.964;9.118;2024-03-06T01:20:35;98910.88;;;5.10;100.00
79709;BME280;69203;48.964;9.118;2024-03-06T01:21:38;98900.09;;;4.99;100.00
79709;BME280;69203;48.964;9.118;2024-03-06T01:22:38;98901.59;;;5.04;100.00
79709;BME280;69203;48.964;9.118;2024-03-06T01:23:39;98899.03;;;5.03;100.00
79709;BME280;69203;48.964;9.118;2024-03-06T01:24:39;98903.88;;;5.12;100.00
79709;BME280;69203;48.964;9.118;2024-03-06T01:25:40;98898.56;;;5.14;100.00
79709;BME280;69203;48.964;9.118;2024-03-06T01:26:40;98854.16;;;4.79;100.00
79709;BME280;69203;48.964;9.118;2024-03-06T01:27:41;98897.84;;;4.91;100.00
79709;BME280;69203;48.964;9.118;2024-03-06T01:28:41;98902.47;;;4.85;100.00
79709;BME280;69203;48.964;9.118;2024-03-06T01:29:41;98900.84;;;4.82;100.00
79709;BME280;69203;48.964;9.118;2024-03-06T01:30:42;98890.13;;;4.70;100.00
79709;BME280;69203;48.964;9.118;2024-03-06T01:31:42;98895.84;;;4.78;100.00
79709;BME280;69203;48.964;9.118;2024-03-06T01:32:42;98906.25;;;4.78;100.00
79709;BME280;69203;48.964;9.118;2024-03-06T01:33:43;98898.22;;;4.82;100.00
79709;BME280;69203;48.964;9.118;2024-03-06T01:34:43;98907.03;;;4.80;100.00
79709;BME280;69203;48.964;9.118;2024-03-06T01:35:44;98894.94;;;4.79;100.00
79709;BME280;69203;48.964;9.118;2024-03-06T01:36:44;98909.44;;;4.84;100.00
79709;BME280;69203;48.964;9.118;2024-03-06T01:37:44;98904.94;;;4.88;100.00
79709;BME280;69203;48.964;9.118;2024-03-06T01:38:45;98912.72;;;4.88;100.00
79709;BME280;69203;48.964;9.118;2024-03-06T01:39:46;98915.28;;;4.89;100.00
79709;BME280;69203;48.964;9.118;2024-03-06T01:40:48;98913.53;;;4.90;100.00
79709;BME280;69203;48.964;9.118;2024-03-06T01:41:50;98917.19;;;4.86;100.00
79709;BME280;69203;48.964;9.118;2024-03-06T01:42:50;98907.28;;;4.74;100.00
79709;BME280;69203;48.964;9.118;2024-03-06T01:43:51;98916.84;;;4.73;100.00
79709;BME280;69203;48.964;9.118;2024-03-06T01:44:52;98906.69;;;4.67;100.00
79709;BME280;69203;48.964;9.118;2024-03-06T01:45:53;98912.22;;;4.80;100.00
79709;BME280;69203;48.964;9.118;2024-03-06T01:46:53;98925.41;;;4.95;100.00
79709;BME280;69203;48.964;9.118;2024-03-06T01:47:54;98920.06;;;4.98;100.00
79709;BME280;69203;48.964;9.118;2024-03-06T01:48:55;98927.50;;;5.07;100.00
79709;BME280;69203;48.964;9.118;2024-03-06T01:49:56;98906.78;;;4.86;100.00
79709;BME280;69203;48.964;9.118;2024-03-06T01:50:59;98913.63;;;4.87;100.00
79709;BME280;69203;48.964;9.118;2024-03-06T01:52:01;98927.88;;;4.98;100.00
79709;BME280;69203;48.964;9.118;2024-03-06T01:53:02;98922.59;;;5.00;100.00
79709;BME280;69203;48.964;9.118;2024-03-06T01:54:03;98926.97;;;4.99;100.00
79709;BME280;69203;48.964;9.118;2024-03-06T01:55:05;98919.38;;;4.95;100.00
79709;BME280;69203;48.964;9.118;2024-03-06T01:56:06;98902.47;;;4.85;100.00
79709;BME280;69203;48.964;9.118;2024-03-06T01:57:08;98919.69;;;4.87;100.00
79709;BME280;69203;48.964;9.118;2024-03-06T01:58:10;98915.34;;;4.88;100.00
79709;BME280;69203;48.964;9.118;2024-03-06T01:59:12;98917.88;;;4.89;100.00
79709;BME280;69203;48.964;9.118;2024-03-06T02:00:14;98911.13;;;4.85;100.00
79709;BME280;69203;48.964;9.118;2024-03-06T02:01:16;98923.88;;;4.91;100.00
79709;BME280;69203;48.964;9.118;2024-03-06T02:02:17;98918.03;;;4.86;100.00
79709;BME280;69203;48.964;9.118;2024-03-06T02:03:18;98923.47;;;4.80;100.00
79709;BME280;69203;48.964;9.118;2024-03-06T02:04:19;98933.16;;;4.97;100.00
79709;BME280;69203;48.964;9.118;2024-03-06T02:05:20;98940.19;;;4.95;100.00
79709;BME280;69203;48.964;9.118;2024-03-06T02:06:21;98932.19;;;4.79;100.00
79709;BME280;69203;48.964;9.118;2024-03-06T02:07:22;98929.91;;;4.72;100.00
79709;BME280;69203;48.964;9.118;2024-03-06T02:08:24;98926.66;;;4.66;100.00
79709;BME280;69203;48.964;9.118;2024-03-06T02:09:24;98931.94;;;4.65;100.00
79709;BME280;69203;48.964;9.118;2024-03-06T02:10:28;98928.50;;;4.64;100.00
79709;BME280;69203;48.964;9.118;2024-03-06T02:11:30;98933.75;;;4.63;100.00
79709;BME280;69203;48.964;9.118;2024-03-06T02:12:31;98938.41;;;4.55;100.00
79709;BME280;69203;48.964;9.118;2024-03-06T02:13:31;98926.72;;;4.45;100.00
79709;BME280;69203;48.964;9.118;2024-03-06T02:14:32;98932.91;;;4.62;100.00
79709;BME280;69203;48.964;9.118;2024-03-06T02:15:32;98941.34;;;4.67;100.00
79709;BME280;69203;48.964;9.118;2024-03-06T02:16:32;98934.53;;;4.65;100.00
79709;BME280;69203;48.964;9.118;2024-03-06T02:17:33;98939.59;;;4.68;100.00
79709;BME280;69203;48.964;9.118;2024-03-06T02:18:34;98935.44;;;4.64;100.00
79709;BME280;69203;48.964;9.118;2024-03-06T02:19:42;98948.00;;;4.75;100.00
79709;BME280;69203;48.964;9.118;2024-03-06T02:20:43;98943.00;;;4.70;100.00
79709;BME280;69203;48.964;9.118;2024-03-06T02:21:46;98944.03;;;4.86;100.00
79709;BME280;69203;48.964;9.118;2024-03-06T02:22:46;98950.91;;;4.87;100.00
79709;BME280;69203;48.964;9.118;2024-03-06T02:23:47;98953.63;;;5.04;100.00
79709;BME280;69203;48.964;9.118;2024-03-06T02:24:48;98959.78;;;5.22;100.00
79709;BME280;69203;48.964;9.118;2024-03-06T02:25:50;98957.66;;;5.12;100.00
79709;BME280;69203;48.964;9.118;2024-03-06T02:26:51;98945.13;;;5.01;100.00
79709;BME280;69203;48.964;9.118;2024-03-06T02:27:51;98953.25;;;4.93;100.00
79709;BME280;69203;48.964;9.118;2024-03-06T02:28:53;98948.81;;;4.95;100.00
79709;BME280;69203;48.964;9.118;2024-03-06T02:29:54;98938.53;;;4.92;100.00
79709;BME280;69203;48.964;9.118;2024-03-06T02:30:55;98939.38;;;4.93;100.00
79709;BME280;69203;48.964;9.118;2024-03-06T02:31:56;98941.34;;;4.88;100.00
79709;BME280;69203;48.964;9.118;2024-03-06T02:32:57;98953.03;;;4.98;100.00
79709;BME280;69203;48.964;9.118;2024-03-06T02:33:57;98938.94;;;4.83;100.00
79709;BME280;69203;48.964;9.118;2024-03-06T02:35:00;98951.94;;;4.83;100.00
79709;BME280;69203;48.964;9.118;2024-03-06T02:36:02;98953.91;;;4.78;100.00
79709;BME280;69203;48.964;9.118;2024-03-06T02:37:02;98941.28;;;4.69;100.00
79709;BME280;69203;48.964;9.118;2024-03-06T02:38:05;98952.41;;;4.73;100.00
79709;BME280;69203;48.964;9.118;2024-03-06T02:39:06;98950.91;;;4.67;100.00
79709;BME280;69203;48.964;9.118;2024-03-06T02:40:08;98949.28;;;4.64;100.00
79709;BME280;69203;48.964;9.118;2024-03-06T02:41:10;98959.81;;;4.61;100.00
79709;BME280;69203;48.964;9.118;2024-03-06T02:42:10;98946.94;;;4.58;100.00
79709;BME280;69203;48.964;9.118;2024-03-06T02:43:12;98942.69;;;4.56;100.00
79709;BME280;69203;48.964;9.118;2024-03-06T02:44:13;98946.16;;;4.56;100.00
79709;BME280;69203;48.964;9.118;2024-03-06T02:45:13;98945.19;;;4.59;100.00
79709;BME280;69203;48.964;9.118;2024-03-06T02:46:13;98944.19;;;4.61;100.00
79709;BME280;69203;48.964;9.118;2024-03-06T02:47:14;98950.16;;;4.65;100.00
79709;BME280;69203;48.964;9.118;2024-03-06T02:48:14;98945.50;;;4.72;100.00
79709;BME280;69203;48.964;9.118;2024-03-06T02:49:15;98965.00;;;4.82;100.00
79709;BME280;69203;48.964;9.118;2024-03-06T02:50:16;98959.09;;;4.78;100.00
79709;BME280;69203;48.964;9.118;2024-03-06T02:51:20;98955.66;;;4.78;100.00
79709;BME280;69203;48.964;9.118;2024-03-06T02:52:21;98962.34;;;4.83;100.00
79709;BME280;69203;48.964;9.118;2024-03-06T02:53:21;98957.59;;;4.73;100.00
79709;BME280;69203;48.964;9.118;2024-03-06T02:54:22;98958.75;;;4.65;100.00
79709;BME280;69203;48.964;9.118;2024-03-06T02:55:22;98964.03;;;4.64;100.00
79709;BME280;69203;48.964;9.118;2024-03-06T02:56:24;98949.66;;;4.55;100.00
79709;BME280;69203;48.964;9.118;2024-03-06T02:57:27;98960.72;;;4.60;100.00
79709;BME280;69203;48.964;9.118;2024-03-06T02:58:28;98971.00;;;4.84;100.00
79709;BME280;69203;48.964;9.118;2024-03-06T02:59:31;98958.06;;;4.82;100.00
79709;BME280;69203;48.964;9.118;2024-03-06T03:00:32;98966.91;;;4.78;100.00
79709;BME280;69203;48.964;9.118;2024-03-06T03:01:32;98960.00;;;4.77;100.00
79709;BME280;69203;48.964;9.118;2024-03-06T03:02:33;98948.25;;;4.68;100.00
79709;BME280;69203;48.964;9.118;2024-03-06T03:03:34;98945.91;;;4.62;100.00
79709;BME280;69203;48.964;9.118;2024-03-06T03:04:35;98957.41;;;4.77;100.00
79709;BME280;69203;48.964;9.118;2024-03-06T03:05:35;98962.34;;;4.83;100.00
79709;BME280;69203;48.964;9.118;2024-03-06T03:06:37;98947.34;;;4.70;100.00
79709;BME280;69203;48.964;9.118;2024-03-06T03:07:37;98953.00;;;4.79;100.00
79709;BME280;69203;48.964;9.118;2024-03-06T03:08:38;98924.44;;;4.57;100.00
79709;BME280;69203;48.964;9.118;2024-03-06T03:09:39;98941.69;;;4.60;100.00
79709;BME280;69203;48.964;9.118;2024-03-06T03:10:39;98943.34;;;4.61;100.00
79709;BME280;69203;48.964;9.118;2024-03-06T03:11:42;98918.06;;;4.44;100.00
79709;BME280;69203;48.964;9.118;2024-03-06T03:12:43;98906.75;;;4.45;100.00
79709;BME280;69203;48.964;9.118;2024-03-06T03:13:44;98881.75;;;4.22;100.00
79709;BME280;69203;48.964;9.118;2024-03-06T03:14:44;98939.34;;;4.54;100.00
79709;BME280;69203;48.964;9.118;2024-03-06T03:15:45;98974.31;;;4.67;100.00
79709;BME280;69203;48.964;9.118;2024-03-06T03:16:45;98958.44;;;4.53;100.00
79709;BME280;69203;48.964;9.118;2024-03-06T03:17:46;98948.53;;;4.41;100.00
79709;BME280;69203;48.964;9.118;2024-03-06T03:18:47;98972.03;;;4.59;100.00
79709;BME280;69203;48.964;9.118;2024-03-06T03:19:48;98972.81;;;4.61;100.00
79709;BME280;69203;48.964;9.118;2024-03-06T03:20:48;98977.09;;;4.62;100.00
79709;BME280;69203;48.964;9.118;2024-03-06T03:21:48;98970.34;;;4.58;100.00
79709;BME280;69203;48.964;9.118;2024-03-06T03:22:49;98979.66;;;4.64;100.00
79709;BME280;69203;48.964;9.118;2024-03-06T03:23:49;98983.94;;;4.65;100.00
79709;BME280;69203;48.964;9.118;2024-03-06T03:24:50;98979.69;;;4.62;100.00
79709;BME280;69203;48.964;9.118;2024-03-06T03:25:50;98988.16;;;4.67;100.00
79709;BME280;69203;48.964;9.118;2024-03-06T03:26:51;98982.09;;;4.67;100.00
79709;BME280;69203;48.964;9.118;2024-03-06T03:27:52;98980.50;;;4.64;100.00
79709;BME280;69203;48.964;9.118;2024-03-06T03:28:52;98989.06;;;4.66;100.00
79709;BME280;69203;48.964;9.118;2024-03-06T03:29:52;98984.72;;;4.67;100.00
79709;BME280;69203;48.964;9.118;2024-03-06T03:30:53;98978.66;;;4.66;100.00
79709;BME280;69203;48.964;9.118;2024-03-06T03:31:53;98989.59;;;4.75;100.00
79709;BME280;69203;48.964;9.118;2024-03-06T03:32:54;98984.16;;;4.81;100.00
79709;BME280;69203;48.964;9.118;2024-03-06T03:33:54;98984.31;;;4.76;100.00
79709;BME280;69203;48.964;9.118;2024-03-06T03:34:55;98989.59;;;4.75;100.00
79709;BME280;69203;48.964;9.118;2024-03-06T03:35:55;98999.63;;;4.84;100.00
79709;BME280;69203;48.964;9.118;2024-03-06T03:36:55;98996.16;;;4.83;100.00
79709;BME280;69203;48.964;9.118;2024-03-06T03:37:59;98981.41;;;4.84;100.00
79709;BME280;69203;48.964;9.118;2024-03-06T03:39:00;98992.31;;;4.92;100.00
79709;BME280;69203;48.964;9.118;2024-03-06T03:40:03;98978.75;;;4.85;100.00
79709;BME280;69203;48.964;9.118;2024-03-06T03:41:11;98991.31;;;4.96;100.00
79709;BME280;69203;48.964;9.118;2024-03-06T03:42:16;98988.81;;;4.93;100.00
79709;BME280;69203;48.964;9.118;2024-03-06T03:43:16;98989.72;;;4.92;100.00
79709;BME280;69203;48.964;9.118;2024-03-06T03:44:17;98993.09;;;4.94;100.00
79709;BME280;69203;48.964;9.118;2024-03-06T03:45:21;98987.13;;;4.92;100.00
79709;BME280;69203;48.964;9.118;2024-03-06T03:46:21;98999.09;;;4.96;100.00
79709;BME280;69203;48.964;9.118;2024-03-06T03:47:21;98989.91;;;4.87;100.00
79709;BME280;69203;48.964;9.118;2024-03-06T03:48:22;98984.06;;;4.82;100.00
79709;BME280;69203;48.964;9.118;2024-03-06T03:49:22;98991.75;;;4.85;100.00
79709;BME280;69203;48.964;9.118;2024-03-06T03:50:22;98984.97;;;4.81;100.00
79709;BME280;69203;48.964;9.118;2024-03-06T03:51:23;98988.31;;;4.85;100.00
79709;BME280;69203;48.964;9.118;2024-03-06T03:52:23;98982.75;;;4.92;100.00
79709;BME280;69203;48.964;9.118;2024-03-06T03:53:24;99010.75;;;5.07;100.00
79709;BME280;69203;48.964;9.118;2024-03-06T03:54:24;98999.59;;;5.04;100.00
79709;BME280;69203;48.964;9.118;2024-03-06T03:55:25;99003.06;;;5.04;100.00
79709;BME280;69203;48.964;9.118;2024-03-06T03:56:25;99005.72;;;5.03;100.00
79709;BME280;69203;48.964;9.118;2024-03-06T03:57:25;99004.06;;;5.02;100.00
79709;BME280;69203;48.964;9.118;2024-03-06T03:58:26;99000.59;;;5.01;100.00
79709;BME280;69203;48.964;9.118;2024-03-06T03:59:29;98994.56;;;5.01;100.00
79709;BME280;69203;48.964;9.118;2024-03-06T04:00:29;99006.66;;;5.02;100.00
79709;BME280;69203;48.964;9.118;2024-03-06T04:01:30;99006.50;;;5.05;100.00
79709;BME280;69203;48.964;9.118;2024-03-06T04:02:31;99006.25;;;5.11;100.00
79709;BME280;69203;48.964;9.118;2024-03-06T04:03:32;99007.94;;;5.12;100.00
79709;BME280;69203;48.964;9.118;2024-03-06T04:04:33;99002.94;;;5.07;100.00
79709;BME280;69203;48.964;9.118;2024-03-06T04:05:34;98995.44;;;5.00;100.00
79709;BME280;69203;48.964;9.118;2024-03-06T04:06:34;99005.72;;;5.03;100.00
79709;BME280;69203;48.964;9.118;2024-03-06T04:07:39;99010.16;;;5.01;100.00
79709;BME280;69203;48.964;9.118;2024-03-06T04:08:40;99013.41;;;5.06;100.00
79709;BME280;69203;48.964;9.118;2024-03-06T04:09:41;98998.69;;;5.05;100.00
79709;BME280;69203;48.964;9.118;2024-03-06T04:10:43;99015.59;;;5.15;100.00
79709;BME280;69203;48.964;9.118;2024-03-06T04:11:46;98997.00;;;5.04;100.00
79709;BME280;69203;48.964;9.118;2024-03-06T04:12:46;99008.97;;;5.08;100.00
79709;BME280;69203;48.964;9.118;2024-03-06T04:13:46;99004.81;;;5.04;100.00
79709;BME280;69203;48.964;9.118;2024-03-06T04:14:47;99000.50;;;5.03;100.00
79709;BME280;69203;48.964;9.118;2024-03-06T04:15:47;99006.50;;;5.05;100.00
79709;BME280;69203;48.964;9.118;2024-03-06T04:16:47;99006.44;;;5.06;100.00
79709;BME280;69203;48.964;9.118;2024-03-06T04:17:48;99001.56;;;4.99;100.00
79709;BME280;69203;48.964;9.118;2024-03-06T04:18:49;99006.66;;;5.02;100.00
79709;BME280;69203;48.964;9.118;2024-03-06T04:19:49;99015.88;;;5.09;100.00
79709;BME280;69203;48.964;9.118;2024-03-06T04:20:50;99016.06;;;5.04;100.00
79709;BME280;69203;48.964;9.118;2024-03-06T04:21:50;99004.81;;;5.04;100.00
79709;BME280;69203;48.964;9.118;2024-03-06T04:22:51;99017.56;;;5.10;100.00
79709;BME280;69203;48.964;9.118;2024-03-06T04:23:52;99014.13;;;5.09;100.00
79709;BME280;69203;48.964;9.118;2024-03-06T04:24:52;99000.47;;;5.04;100.00
79709;BME280;69203;48.964;9.118;2024-03-06T04:25:53;99013.91;;;5.14;100.00
79709;BME280;69203;48.964;9.118;2024-03-06T04:26:57;99014.50;;;5.21;100.00
79709;BME280;69203;48.964;9.118;2024-03-06T04:27:57;99016.50;;;5.14;100.00
79709;BME280;69203;48.964;9.118;2024-03-06T04:28:57;99000.50;;;5.03;100.00
79709;BME280;69203;48.964;9.118;2024-03-06T04:29:58;99000.59;;;5.01;100.00
79709;BME280;69203;48.964;9.118;2024-03-06T04:30:59;99009.63;;;5.13;100.00
79709;BME280;69203;48.964;9.118;2024-03-06T04:31:59;99019.91;;;5.16;100.00
79709;BME280;69203;48.964;9.118;2024-03-06T04:32:59;99016.47;;;5.16;100.00
79709;BME280;69203;48.964;9.118;2024-03-06T04:34:01;99015.81;;;5.10;100.00
79709;BME280;69203;48.964;9.118;2024-03-06T04:35:02;99007.56;;;5.01;100.00
79709;BME280;69203;48.964;9.118;2024-03-06T04:36:04;99022.81;;;5.08;100.00
79709;BME280;69203;48.964;9.118;2024-03-06T04:37:08;99021.22;;;5.06;100.00
79709;BME280;69203;48.964;9.118;2024-03-06T04:38:09;99012.56;;;5.05;100.00
79709;BME280;69203;48.964;9.118;2024-03-06T04:39:09;99015.22;;;5.04;100.00
79709;BME280;69203;48.964;9.118;2024-03-06T04:40:10;99031.41;;;5.10;100.00
79709;BME280;69203;48.964;9.118;2024-03-06T04:41:10;99025.06;;;5.18;100.00
79709;BME280;69203;48.964;9.118;2024-03-06T04:42:11;99029.66;;;5.11;100.00
79709;BME280;69203;48.964;9.118;2024-03-06T04:43:11;99039.03;;;5.15;100.00
79709;BME280;69203;48.964;9.118;2024-03-06T04:44:12;99022.91;;;5.07;100.00
79709;BME280;69203;48.964;9.118;2024-03-06T04:45:15;99018.03;;;4.99;100.00
79709;BME280;69203;48.964;9.118;2024-03-06T04:46:15;99034.09;;;5.09;100.00
79709;BME280;69203;48.964;9.118;2024-03-06T04:47:16;99034.28;;;5.04;100.00
79709;BME280;69203;48.964;9.118;2024-03-06T04:48:16;99016.31;;;4.98;100.00
79709;BME280;69203;48.964;9.118;2024-03-06T04:49:17;99020.03;;;4.93;100.00
79709;BME280;69203;48.964;9.118;2024-03-06T04:50:17;99024.72;;;5.05;100.00
79709;BME280;69203;48.964;9.118;2024-03-06T04:51:18;99037.41;;;5.13;100.00
79709;BME280;69203;48.964;9.118;2024-03-06T04:52:19;99046.13;;;5.12;100.00
79709;BME280;69203;48.964;9.118;2024-03-06T04:53:20;99024.66;;;5.06;100.00
79709;BME280;69203;48.964;9.118;2024-03-06T04:54:20;99031.38;;;5.12;100.00
79709;BME280;69203;48.964;9.118;2024-03-06T04:55:20;99038.19;;;5.15;100.00
79709;BME280;69203;48.964;9.118;2024-03-06T04:56:22;99028.13;;;5.07;100.00
79709;BME280;69203;48.964;9.118;2024-03-06T04:57:23;99028.75;;;5.12;100.00
79709;BME280;69203;48.964;9.118;2024-03-06T04:58:26;99031.41;;;5.10;100.00
79709;BME280;69203;48.964;9.118;2024-03-06T04:59:29;99049.50;;;5.14;100.00
79709;BME280;69203;48.964;9.118;2024-03-06T05:00:30;99043.13;;;5.21;100.00
79709;BME280;69203;48.964;9.118;2024-03-06T05:01:31;99047.47;;;5.20;100.00
79709;BME280;69203;48.964;9.118;2024-03-06T05:02:32;99048.47;;;5.18;100.00
79709;BME280;69203;48.964;9.118;2024-03-06T05:03:35;99050.94;;;5.21;100.00
79709;BME280;69203;48.964;9.118;2024-03-06T05:04:36;99053.03;;;5.13;100.00
79709;BME280;69203;48.964;9.118;2024-03-06T05:05:36;99053.75;;;5.16;100.00
79709;BME280;69203;48.964;9.118;2024-03-06T05:06:37;99051.13;;;5.16;100.00
79709;BME280;69203;48.964;9.118;2024-03-06T05:07:38;99053.78;;;5.15;100.00
79709;BME280;69203;48.964;9.118;2024-03-06T05:08:38;99060.69;;;5.16;100.00
79709;BME280;69203;48.964;9.118;2024-03-06T05:09:38;99060.38;;;5.23;100.00
79709;BME280;69203;48.964;9.118;2024-03-06T05:10:41;99067.91;;;5.29;100.00
79709;BME280;69203;48.964;9.118;2024-03-06T05:11:42;99070.66;;;5.26;100.00
79709;BME280;69203;48.964;9.118;2024-03-06T05:12:42;99063.03;;;5.22;100.00
79709;BME280;69203;48.964;9.118;2024-03-06T05:13:43;99064.53;;;5.27;100.00
79709;BME280;69203;48.964;9.118;2024-03-06T05:14:43;99068.19;;;5.23;100.00
79709;BME280;69203;48.964;9.118;2024-03-06T05:15:43;99069.94;;;5.23;100.00
79709;BME280;69203;48.964;9.118;2024-03-06T05:16:44;99067.41;;;5.21;100.00
79709;BME280;69203;48.964;9.118;2024-03-06T05:17:44;99075.06;;;5.24;100.00
79709;BME280;69203;48.964;9.118;2024-03-06T05:18:44;99068.34;;;5.19;100.00
79709;BME280;69203;48.964;9.118;2024-03-06T05:19:45;99078.41;;;5.28;100.00
79709;BME280;69203;48.964;9.118;2024-03-06T05:20:47;99076.81;;;5.24;100.00
79709;BME280;69203;48.964;9.118;2024-03-06T05:21:48;99066.84;;;5.13;100.00
79709;BME280;69203;48.964;9.118;2024-03-06T05:22:48;99077.09;;;5.18;100.00